createdAt,value
2023-03-27T00:01:44.939Z,97263.50
2023-03-27T00:06:49.028Z,97254.88
2023-03-27T00:11:52.849Z,97260.09
2023-03-27T00:17:00.375Z,97243.88
2023-03-27T00:22:03.934Z,97245.72
2023-03-27T00:27:09.227Z,97261.03
2023-03-27T00:32:14.116Z,97256.66
2023-03-27T00:37:18.306Z,97264.34
2023-03-27T00:42:24.856Z,97259.31
2023-03-27T00:47:33.596Z,97275.78
2023-03-27T00:52:37.371Z,97266.50
2023-03-27T00:57:41.441Z,97263.00
2023-03-27T01:02:49.902Z,97251.69
2023-03-27T01:08:00.400Z,97252.41
2023-03-27T01:13:18.665Z,97250.69
2023-03-27T01:18:38.132Z,97254.09
2023-03-27T01:24:17.504Z,97254.88
2023-03-27T01:29:26.332Z,97256.50
2023-03-27T01:35:02.119Z,97260.91
2023-03-27T01:46:01.554Z,97243.25
2023-03-27T01:51:10.359Z,97231.28
2023-03-27T01:56:26.302Z,97258.00
2023-03-27T02:01:34.408Z,97259.88
2023-03-27T02:06:42.670Z,97252.28
2023-03-27T02:11:54.874Z,97268.94
2023-03-27T02:17:03.678Z,97260.56
2023-03-27T02:22:07.830Z,97270.31
2023-03-27T02:27:23.558Z,97269.88
2023-03-27T02:32:39.829Z,97268.97
2023-03-27T02:37:53.223Z,97265.72
2023-03-27T02:43:04.651Z,97264.66
2023-03-27T02:48:14.131Z,97273.19
2023-03-27T02:53:21.228Z,97266.63
2023-03-27T02:58:32.356Z,97277.03
2023-03-27T03:03:41.902Z,97268.88
2023-03-27T03:08:46.818Z,97272.13
2023-03-27T03:13:51.585Z,97285.00
2023-03-27T03:18:55.197Z,97281.72
2023-03-27T03:23:59.106Z,97283.47
2023-03-27T03:29:04.706Z,97287.72
2023-03-27T03:34:08.105Z,97295.44
2023-03-27T03:39:12.709Z,97295.56
2023-03-27T03:44:17.542Z,97311.00
2023-03-27T03:49:21.034Z,97303.34
2023-03-27T03:54:24.508Z,97307.59
2023-03-27T03:59:30.220Z,97304.94
2023-03-27T04:04:33.606Z,97304.09
2023-03-27T04:09:37.043Z,97301.34
2023-03-27T04:14:41.964Z,97297.84
2023-03-27T04:19:46.446Z,97291.88
2023-03-27T04:24:50.748Z,97294.19
2023-03-27T04:29:55.551Z,97297.63
2023-03-27T04:34:59.209Z,97295.94
2023-03-27T04:40:05.199Z,97293.38
2023-03-27T04:45:14.971Z,97303.44
2023-03-27T04:50:19.480Z,97300.81
2023-03-27T04:55:25.989Z,97289.72
2023-03-27T05:00:30.813Z,97291.38
2023-03-27T05:05:34.997Z,97303.09
2023-03-27T05:10:38.580Z,97305.00
2023-03-27T05:15:43.739Z,97303.28
2023-03-27T05:20:49.790Z,97310.00
2023-03-27T05:25:59.988Z,97308.88
2023-03-27T05:31:06.323Z,97308.06
2023-03-27T05:36:10.829Z,97309.81
2023-03-27T05:41:16.239Z,97308.03
2023-03-27T05:46:21.820Z,97301.00
2023-03-27T05:51:25.598Z,97301.13
2023-03-27T06:02:11.159Z,97313.03
2023-03-27T06:07:15.089Z,97318.91
2023-03-27T06:12:18.976Z,97332.25
2023-03-27T06:17:24.052Z,97326.06
2023-03-27T06:22:27.677Z,97328.50
2023-03-27T06:27:32.285Z,97324.75
2023-03-27T06:32:37.298Z,97325.31
2023-03-27T06:43:04.514Z,97314.59
2023-03-27T06:48:18.820Z,97310.97
2023-03-27T06:53:27.781Z,97314.38
2023-03-27T06:58:32.154Z,97320.09
2023-03-27T07:03:37.050Z,97323.16
2023-03-27T07:08:40.236Z,97317.09
2023-03-27T07:13:45.233Z,97336.34
2023-03-27T07:18:50.376Z,97331.00
2023-03-27T07:23:54.573Z,97330.69
2023-03-27T07:29:00.790Z,97332.72
2023-03-27T07:34:05.874Z,97334.66
2023-03-27T07:39:09.870Z,97337.94
2023-03-27T07:44:13.456Z,97332.00
2023-03-27T07:49:18.822Z,97314.03
2023-03-27T07:54:22.283Z,97330.22
2023-03-27T07:59:25.981Z,97319.81
2023-03-27T08:04:30.847Z,97334.84
2023-03-27T08:09:34.477Z,97342.66
2023-03-27T08:14:38.025Z,97335.19
2023-03-27T08:19:45.579Z,97338.06
2023-03-27T08:24:49.413Z,97335.66
2023-03-27T08:29:53.353Z,97337.59
2023-03-27T08:34:58.179Z,97340.47
2023-03-27T08:40:02.202Z,97342.09
2023-03-27T08:45:16.512Z,97337.63
2023-03-27T08:50:33.136Z,97348.44
2023-03-27T08:55:42.351Z,97333.06
2023-03-27T09:00:50.057Z,97351.03
2023-03-27T09:06:00.511Z,97350.59
2023-03-27T09:11:10.549Z,97364.00
2023-03-27T09:16:20.428Z,97371.44
2023-03-27T09:21:36.309Z,97363.09
2023-03-27T09:26:39.816Z,97360.34
2023-03-27T09:31:48.450Z,97359.34
2023-03-27T09:36:53.438Z,97365.88
2023-03-27T09:42:00.658Z,97384.69
2023-03-27T09:47:16.321Z,97382.25
2023-03-27T09:52:40.489Z,97392.59
2023-03-27T09:57:44.696Z,97390.03
2023-03-27T10:02:48.238Z,97396.72
2023-03-27T10:07:53.170Z,97401.03
2023-03-27T10:12:58.917Z,97397.91
2023-03-27T10:18:06.887Z,97396.13
2023-03-27T10:23:25.241Z,97408.31
2023-03-27T10:28:30.954Z,97412.41
2023-03-27T10:33:36.776Z,97411.59
2023-03-27T10:38:44.139Z,97406.53
2023-03-27T10:43:49.677Z,97416.47
2023-03-27T10:49:00.591Z,97420.97
2023-03-27T10:54:14.822Z,97425.47
2023-03-27T10:59:34.731Z,97427.34
2023-03-27T11:04:50.570Z,97425.41
2023-03-27T11:10:03.063Z,97426.84
2023-03-27T11:15:14.817Z,97422.50
2023-03-27T11:20:26.252Z,97435.88
2023-03-27T11:25:41.128Z,97439.06
2023-03-27T11:30:49.394Z,97430.44
2023-03-27T11:35:59.454Z,97431.19
2023-03-27T11:41:04.697Z,97432.97
2023-03-27T11:46:25.208Z,97442.66
2023-03-27T11:51:38.314Z,97441.94
2023-03-27T11:56:54.588Z,97450.00
2023-03-27T12:02:02.945Z,97456.69
2023-03-27T12:07:18.758Z,97462.78
2023-03-27T12:13:03.089Z,97471.13
2023-03-27T12:18:16.092Z,97472.97
2023-03-27T12:24:01.036Z,97482.56
2023-03-27T12:29:23.023Z,97487.91
2023-03-27T12:34:41.694Z,97486.66
2023-03-27T12:39:53.669Z,97490.91
2023-03-27T12:45:14.687Z,97490.81
2023-03-27T12:50:27.514Z,97490.13
2023-03-27T12:55:36.061Z,97498.53
2023-03-27T13:00:40.972Z,97500.31
2023-03-27T13:06:04.738Z,97506.63
2023-03-27T13:11:22.732Z,97502.59
2023-03-27T13:16:47.438Z,97512.56
2023-03-27T13:22:06.270Z,97506.44
2023-03-27T13:27:23.547Z,97527.72
2023-03-27T13:32:38.087Z,97525.59
2023-03-27T13:37:54.398Z,97524.38
2023-03-27T13:43:10.250Z,97527.72
2023-03-27T13:48:44.175Z,97532.88
2023-03-27T13:54:20.931Z,97546.00
2023-03-27T14:00:00.693Z,97546.56
2023-03-27T14:05:25.434Z,97545.44
2023-03-27T14:10:57.294Z,97546.44
2023-03-27T14:16:23.749Z,97566.44
2023-03-27T14:21:38.268Z,97571.56
2023-03-27T14:26:45.502Z,97576.94
2023-03-27T14:31:49.428Z,97578.00
2023-03-27T14:36:56.194Z,97590.72
2023-03-27T14:42:02.244Z,97591.50
2023-03-27T14:47:12.098Z,97608.19
2023-03-27T14:52:25.297Z,97612.66
2023-03-27T14:57:29.737Z,97609.94
2023-03-27T15:02:35.722Z,97623.44
2023-03-27T15:07:42.964Z,97628.50
2023-03-27T15:12:48.089Z,97637.25
2023-03-27T15:17:54.978Z,97647.72
2023-03-27T15:23:06.680Z,97647.13
2023-03-27T15:28:17.871Z,97654.19
2023-03-27T15:33:26.708Z,97654.88
2023-03-27T15:38:34.786Z,97664.63
2023-03-27T15:43:38.276Z,97669.66
2023-03-27T15:48:45.167Z,97676.72
2023-03-27T15:53:53.768Z,97699.38
2023-03-27T15:59:00.436Z,97701.97
2023-03-27T16:04:09.109Z,97706.38
2023-03-27T16:09:25.319Z,97728.00
2023-03-27T16:14:31.827Z,97724.88
2023-03-27T16:19:43.232Z,97737.97
2023-03-27T16:24:48.222Z,97745.03
2023-03-27T16:29:52.298Z,97750.31
2023-03-27T16:34:55.812Z,97754.22
2023-03-27T16:40:00.727Z,97763.03
2023-03-27T16:45:05.286Z,97775.19
2023-03-27T16:50:11.612Z,97781.13
2023-03-27T16:55:17.373Z,97792.38
2023-03-27T17:00:21.432Z,97794.81
2023-03-27T17:05:25.995Z,97810.34
2023-03-27T17:10:31.369Z,97803.44
2023-03-27T17:15:38.405Z,97807.72
2023-03-27T17:20:42.016Z,97813.69
2023-03-27T17:25:47.875Z,97802.47
2023-03-27T17:31:01.414Z,97808.38
2023-03-27T17:36:11.942Z,97811.75
2023-03-27T17:41:17.710Z,97811.88
2023-03-27T17:46:21.733Z,97818.03
2023-03-27T17:51:25.462Z,97825.72
2023-03-27T17:56:30.341Z,97829.22
2023-03-27T18:01:33.540Z,97847.25
2023-03-27T18:06:38.176Z,97853.28
2023-03-27T18:11:43.098Z,97862.72
2023-03-27T18:16:46.407Z,97856.63
2023-03-27T18:21:49.900Z,97862.78
2023-03-27T18:26:55.504Z,97877.34
2023-03-27T18:31:59.050Z,97879.22
2023-03-27T18:37:02.626Z,97880.94
2023-03-27T18:42:08.868Z,97884.31
2023-03-27T18:47:12.376Z,97893.81
2023-03-27T18:52:16.168Z,97899.16
2023-03-27T18:57:21.360Z,97906.94
2023-03-27T19:02:25.046Z,97920.66
2023-03-27T19:07:28.657Z,97928.41
2023-03-27T19:12:35.049Z,97930.16
2023-03-27T19:17:40.412Z,97929.34
2023-03-27T19:22:45.914Z,97950.72
2023-03-27T19:27:50.790Z,97952.50
2023-03-27T19:32:54.045Z,97956.00
2023-03-27T19:37:57.648Z,97972.31
2023-03-27T19:43:02.616Z,97991.28
2023-03-27T19:48:06.585Z,97989.56
2023-03-27T19:53:10.112Z,97998.09
2023-03-27T19:58:14.972Z,98011.84
2023-03-27T20:03:19.866Z,98001.59
2023-03-27T20:08:23.885Z,98021.47
2023-03-27T20:13:28.767Z,98024.03
2023-03-27T20:18:34.358Z,98027.44
2023-03-27T20:23:38.728Z,98026.59
2023-03-27T20:28:43.618Z,98034.25
2023-03-27T20:33:47.672Z,98040.25
2023-03-27T20:38:52.940Z,98045.56
2023-03-27T20:43:58.953Z,98048.97
2023-03-27T20:49:03.708Z,98039.44
2023-03-27T20:54:10.238Z,98042.84
2023-03-27T20:59:15.205Z,98050.44
2023-03-27T21:04:18.366Z,98044.41
2023-03-27T21:09:22.265Z,98044.66
2023-03-27T21:14:27.386Z,98047.47
2023-03-27T21:19:30.868Z,98055.44
2023-03-27T21:24:34.352Z,98051.25
2023-03-27T21:29:39.352Z,98048.78
2023-03-27T21:34:43.022Z,98048.88
2023-03-27T21:39:46.470Z,98049.00
2023-03-27T21:44:54.861Z,98051.63
2023-03-27T21:50:00.172Z,98057.66
2023-03-27T21:55:03.866Z,98051.69
2023-03-27T22:00:10.474Z,98047.44
2023-03-27T22:05:14.026Z,98063.75
2023-03-27T22:10:17.791Z,98066.34
2023-03-27T22:15:22.826Z,98073.22
2023-03-27T22:20:26.323Z,98083.53
2023-03-27T22:25:29.808Z,98096.38
2023-03-27T22:30:34.715Z,98071.50
2023-03-27T22:35:38.018Z,98120.34
2023-03-27T22:40:41.474Z,98122.00
2023-03-27T22:45:46.312Z,98140.84
2023-03-27T22:50:56.194Z,98143.41
2023-03-27T22:56:00.790Z,98145.97
2023-03-27T23:01:06.057Z,98154.50
2023-03-27T23:06:17.308Z,98165.56
2023-03-27T23:11:21.350Z,98167.28
2023-03-27T23:16:26.279Z,98167.28
2023-03-27T23:21:29.799Z,98164.63
2023-03-27T23:26:33.288Z,98173.25
2023-03-27T23:31:38.220Z,98182.56
2023-03-27T23:36:41.776Z,98183.31
2023-03-27T23:41:45.169Z,98185.91
2023-03-27T23:46:49.991Z,98195.31
2023-03-27T23:51:53.357Z,98192.75
2023-03-27T23:56:57.026Z,98197.81
